Aviation Digital Data Service (ADDS)

Output produced by METARs form (0707 UTC 29 August 2016)
found at http://aviationweather.gov/adds/metars/
 
KGFL 290543Z 2906/3006 00000KT P6SM SKC 
     TEMPO 2909/2912 1/2SM FG VV002 
     FM291300 33008KT P6SM SCT040 
     FM300100 01004KT P6SM SKC